CheckWX is a tool to help pilots better visualize weather data.  It is not intended as a substitute for an official pre-flight weather briefing.

11:15:09 UTC

KHRX METAR
Hereford Municipal Airport
Hereford, Texas, USA
Current

25 mins ago

KHRX 151050Z AUTO 27009KT 7SM CLR 13/08 A2998 RMK AO2 T01260081
Observed
Oct-15 @ 10:50 UTC
Wind
  • 270° at 9 KTS
Visibility
7 SM
Flight Rules
VFR
Cloud Levels
  • Clear skies
Temperature
13°C / 55°F
Dewpoint
C / 46°F
Humidity
72%
Altimeter
29.98" Hg
Pressure
1015.22 hPa
Previous

45 mins ago

KHRX 151030Z AUTO 26009KT 10SM CLR 13/09 A2997 RMK AO2 T01300085
Observed
Oct-15 @ 10:30 UTC
Wind
  • 260° at 9 KTS
Visibility
10 SM
Flight Rules
VFR
Cloud Levels
  • Clear skies
Temperature
13°C / 55°F
Dewpoint
C / 48°F
Humidity
77%
Altimeter
29.97" Hg
Pressure
1014.92 hPa
Previous

1 hour ago

KHRX 151010Z AUTO 26010KT 7SM CLR 13/09 A2997 RMK AO2 T01290090
Observed
Oct-15 @ 10:10 UTC
Wind
  • 260° at 10 KTS
Visibility
7 SM
Flight Rules
VFR
Cloud Levels
  • Clear skies
Temperature
13°C / 55°F
Dewpoint
C / 48°F
Humidity
77%
Altimeter
29.97" Hg
Pressure
1014.92 hPa